Map

Track Data

SID SEASON NUMBER BASIN SUBBASIN NAME ISO_TIME NATURE LAT LON WMO_WIND WMO_PRES WMO_AGENCY TRACK_TYPE DIST2LAND LANDFALL IFLAG USA_AGENCY USA_ATCF_ID USA_LAT USA_LON USA_RECORD USA_STATUS USA_WIND USA_PRES USA_SSHS USA_R34_NE USA_R34_SE USA_R34_SW USA_R34_NW USA_R50_NE USA_R50_SE USA_R50_SW USA_R50_NW USA_R64_NE USA_R64_SE USA_R64_SW USA_R64_NW USA_POCI USA_ROCI USA_RMW USA_EYE TOKYO_LAT TOKYO_LON TOKYO_GRADE TOKYO_WIND TOKYO_PRES TOKYO_R50_DIR TOKYO_R50_LONG TOKYO_R50_SHORT TOKYO_R30_DIR TOKYO_R30_LONG TOKYO_R30_SHORT TOKYO_LAND CMA_LAT CMA_LON CMA_CAT CMA_WIND CMA_PRES HKO_LAT HKO_LON HKO_CAT HKO_WIND HKO_PRES NEWDELHI_LAT NEWDELHI_LON NEWDELHI_GRADE NEWDELHI_WIND NEWDELHI_PRES NEWDELHI_CI NEWDELHI_DP NEWDELHI_POCI REUNION_LAT REUNION_LON REUNION_TYPE REUNION_WIND REUNION_PRES REUNION_TNUM REUNION_CI REUNION_RMW REUNION_R34_NE REUNION_R34_SE REUNION_R34_SW REUNION_R34_NW REUNION_R50_NE REUNION_R50_SE REUNION_R50_SW REUNION_R50_NW REUNION_R64_NE REUNION_R64_SE REUNION_R64_SW REUNION_R64_NW BOM_LAT BOM_LON BOM_TYPE BOM_WIND BOM_PRES BOM_TNUM BOM_CI BOM_RMW BOM_R34_NE BOM_R34_SE BOM_R34_SW BOM_R34_NW BOM_R50_NE BOM_R50_SE BOM_R50_SW BOM_R50_NW BOM_R64_NE BOM_R64_SE BOM_R64_SW BOM_R64_NW BOM_ROCI BOM_POCI BOM_EYE BOM_POS_METHOD BOM_PRES_METHOD NADI_LAT NADI_LON NADI_CAT NADI_WIND NADI_PRES WELLINGTON_LAT WELLINGTON_LON WELLINGTON_WIND WELLINGTON_PRES DS824_LAT DS824_LON DS824_STAGE DS824_WIND DS824_PRES TD9636_LAT TD9636_LON TD9636_STAGE TD9636_WIND TD9636_PRES TD9635_LAT TD9635_LON TD9635_WIND TD9635_PRES TD9635_ROCI NEUMANN_LAT NEUMANN_LON NEUMANN_CLASS NEUMANN_WIND NEUMANN_PRES MLC_LAT MLC_LON MLC_CLASS MLC_WIND MLC_PRES USA_GUST BOM_GUST BOM_GUST_PER REUNION_GUST REUNION_GUST_PER USA_SEAHGT USA_SEARAD_NE USA_SEARAD_SE USA_SEARAD_SW USA_SEARAD_NW STORM_SPEED STORM_DIR
1902335S09065 1903 51 SI MM NOT_NAMED 1902-12-01 06:00:00 NR -8.90000 65.3000 reunion spur-split 1496 1481 _____O________ -1 -8.90000 65.3000 99 9.90000 2 227
1902335S09065 1903 51 SI MM NOT_NAMED 1902-12-01 09:00:00 NR -8.96079 65.2353 spur-split 1481 1481 _____P________ -1 -8.96079 65.2353 99 2 227
1902335S09065 1903 51 SI MM NOT_NAMED 1902-12-01 12:00:00 NR -9.02173 65.1672 spur-split 1481 1465 _____P________ -1 -9.02173 65.1672 99 2 230
1902335S09065 1903 51 SI MM NOT_NAMED 1902-12-01 15:00:00 NR -9.08300 65.0924 spur-split 1465 1459 _____P________ -1 -9.08300 65.0924 99 2 232
1902335S09065 1903 51 SI MM NOT_NAMED 1902-12-01 18:00:00 NR -9.14477 65.0075 spur-split 1459 1444 _____P________ -1 -9.14477 65.0075 99 2 236
1902335S09065 1903 51 SI MM NOT_NAMED 1902-12-01 21:00:00 NR -9.20720 64.9092 spur-split 1444 1429 _____P________ -1 -9.20720 64.9092 99 2 239
1902335S09065 1903 51 SI MM NOT_NAMED 1902-12-02 00:00:00 NR -9.27045 64.7941 spur-split 1429 1423 _____P________ -1 -9.27045 64.7941 99 3 243
1902335S09065 1903 51 SI MM NOT_NAMED 1902-12-02 03:00:00 NR -9.33467 64.6588 spur-split 1423 1402 _____P________ -1 -9.33467 64.6588 99 3 246
1902335S09065 1903 51 SI MM NOT_NAMED 1902-12-02 06:00:00 NR -9.40000 64.5000 reunion spur-split 1402 1382 _____O________ -1 -9.40000 64.5000 99 9.90000 4 249
1902335S09065 1903 51 SI MM NOT_NAMED 1902-12-02 09:00:00 NR -9.46662 64.3155 spur-split 1382 1371 _____P________ -1 -9.46662 64.3155 99 4 251
1902335S09065 1903 51 SI MM NOT_NAMED 1902-12-02 12:00:00 NR -9.53486 64.1080 spur-split 1371 1350 _____P________ -1 -9.53486 64.1080 99 5 252
1902335S09065 1903 51 SI MM NOT_NAMED 1902-12-02 15:00:00 NR -9.60510 63.8815 spur-split 1350 1330 _____P________ -1 -9.60510 63.8815 99 5 253
1902335S09065 1903 51 SI MM NOT_NAMED 1902-12-02 18:00:00 NR -9.67772 63.6398 spur-split 1325 1315 _____P________ -1 -9.67772 63.6398 99 5 253
1902335S09065 1903 51 SI MM NOT_NAMED 1902-12-02 21:00:00 NR -9.75311 63.3869 spur-split 1305 1290 _____P________ -1 -9.75311 63.3869 99 5 253
1902335S09065 1903 51 SI MM NOT_NAMED 1902-12-03 00:00:00 NR -9.83168 63.1267 spur-split 1290 1270 _____P________ -1 -9.83168 63.1267 99 5 253
1902335S09065 1903 51 SI MM NOT_NAMED 1902-12-03 03:00:00 NR -9.91383 62.8631 spur-split 1270 1246 _____P________ -1 -9.91383 62.8631 99 5 252
1902335S09065 1903 51 SI MM NOT_NAMED 1902-12-03 06:00:00 NR -10.0000 62.6000 reunion spur-split 1246 1227 _____O________ -1 -10.0000 62.6000 99 9.90000 5 250
1902335S09065 1903 51 SI MM NOT_NAMED 1902-12-03 09:00:00 NR -10.0885 62.3717 spur-split 1227 1208 _____P________ -1 -10.0885 62.3717 99 5 248
1902335S09065 1903 51 SI MM NOT_NAMED 1902-12-03 12:00:00 NR -10.1810 62.1434 spur-split 1204 1185 _____P________ -1 -10.1810 62.1434 99 5 247
1902335S09065 1903 51 SI MM NOT_NAMED 1902-12-03 15:00:00 NR -10.2771 61.9120 spur-split 1185 1167 _____P________ -1 -10.2771 61.9120 99 5 247
1902335S09065 1903 51 SI MM NOT_NAMED 1902-12-03 18:00:00 NR -10.3765 61.6744 spur-split 1167 1145 _____P________ -1 -10.3765 61.6744 99 5 247
1902335S09065 1903 51 SI MM NOT_NAMED 1902-12-03 21:00:00 NR -10.4789 61.4275 spur-split 1145 1127 _____P________ -1 -10.4789 61.4275 99 5 247
1902335S09065 1903 51 SI MM NOT_NAMED 1902-12-04 00:00:00 NR -10.5839 61.1682 spur-split 1127 1106 _____P________ -1 -10.5839 61.1682 99 6 248
1902335S09065 1903 51 SI MM NOT_NAMED 1902-12-04 03:00:00 NR -10.6910 60.8934 spur-split 1106 1086 _____P________ -1 -10.6910 60.8934 99 6 249
1902335S09065 1903 51 SI MM NOT_NAMED 1902-12-04 06:00:00 NR -10.8000 60.6000 reunion spur-split 1086 1066 _____O________ -1 -10.8000 60.6000 99 9.90000 6 250
1902335S09065 1903 51 SI MM NOT_NAMED 1902-12-04 09:00:00 NR -10.9040 60.2849 spur-split 1066 1047 _____P________ -1 -10.9040 60.2849 99 7 252
1902335S09065 1903 51 SI MM NOT_NAMED 1902-12-04 12:00:00 NR -11.0096 59.9515 spur-split 1047 1027 _____P________ -1 -11.0096 59.9515 99 7 252
1902335S09065 1903 51 SI MM NOT_NAMED 1902-12-04 15:00:00 NR -11.1173 59.6022 spur-split 1027 1010 _____P________ -1 -11.1173 59.6022 99 7 253
1902335S09065 1903 51 SI MM NOT_NAMED 1902-12-04 18:00:00 NR -11.2273 59.2393 spur-split 1008 993 _____P________ -1 -11.2273 59.2393 99 8 253
1902335S09065 1903 51 SI MM NOT_NAMED 1902-12-04 21:00:00 NR -11.3402 58.8653 spur-split 993 950 _____P________ -1 -11.3402 58.8653 99 8 253
1902335S09065 1903 51 SI MM NOT_NAMED 1902-12-05 00:00:00 NR -11.4563 58.4825 spur-split 947 902 _____P________ -1 -11.4563 58.4825 99 8 253
1902335S09065 1903 51 SI MM NOT_NAMED 1902-12-05 03:00:00 NR -11.5761 58.0933 spur-split 902 857 _____P________ -1 -11.5761 58.0933 99 8 252
1902335S09065 1903 51 SI MM NOT_NAMED 1902-12-05 06:00:00 NR -11.7000 57.7000 reunion spur-split 857 812 _____O________ -1 -11.7000 57.7000 99 9.90000 8 252
1902335S09065 1903 51 SI MM NOT_NAMED 1902-12-05 09:00:00 NR -11.8341 57.2951 spur-split 812 764 _____P________ -1 -11.8341 57.2951 99 8 251
1902335S09065 1903 51 SI MM NOT_NAMED 1902-12-05 12:00:00 NR -11.9732 56.8814 spur-split 764 719 _____P________ -1 -11.9732 56.8814 99 9 251
1902335S09065 1903 51 SI MM NOT_NAMED 1902-12-05 15:00:00 NR -12.1152 56.4641 spur-split 719 671 _____P________ -1 -12.1152 56.4641 99 9 251
1902335S09065 1903 51 SI MM NOT_NAMED 1902-12-05 18:00:00 NR -12.2581 56.0482 spur-split 661 626 _____P________ -1 -12.2581 56.0482 99 9 251
1902335S09065 1903 51 SI MM NOT_NAMED 1902-12-05 21:00:00 NR -12.4000 55.6387 spur-split 616 581 _____P________ -1 -12.4000 55.6387 99 8 250
1902335S09065 1903 51 SI MM NOT_NAMED 1902-12-06 00:00:00 NR -12.5389 55.2407 spur-split 571 534 _____P________ -1 -12.5389 55.2407 99 8 250
1902335S09065 1903 51 SI MM NOT_NAMED 1902-12-06 03:00:00 NR -12.6729 54.8595 spur-split 534 489 _____P________ -1 -12.6729 54.8595 99 8 250
1902335S09065 1903 51 SI MM NOT_NAMED 1902-12-06 06:00:00 NR -12.8000 54.5000 reunion spur-split 489 455 _____O________ -1 -12.8000 54.5000 99 9.90000 7 250
1902335S09065 1903 51 SI MM NOT_NAMED 1902-12-06 09:00:00 NR -12.9172 54.1649 spur-split 455 420 _____P________ -1 -12.9172 54.1649 99 7 250
1902335S09065 1903 51 SI MM NOT_NAMED 1902-12-06 12:00:00 NR -13.0288 53.8493 spur-split 410 386 _____P________ -1 -13.0288 53.8493 99 6 250
1902335S09065 1903 51 SI MM NOT_NAMED 1902-12-06 15:00:00 NR -13.1351 53.5521 spur-split 386 352 _____P________ -1 -13.1351 53.5521 99 6 250
1902335S09065 1903 51 SI MM NOT_NAMED 1902-12-06 18:00:00 NR -13.2365 53.2721 spur-split 352 318 _____P________ -1 -13.2365 53.2721 99 6 249
1902335S09065 1903 51 SI MM NOT_NAMED 1902-12-06 21:00:00 NR -13.3333 53.0081 spur-split 318 295 _____P________ -1 -13.3333 53.0081 99 5 249
1902335S09065 1903 51 SI MM NOT_NAMED 1902-12-07 00:00:00 NR -13.4260 52.7588 spur-split 295 261 _____P________ -1 -13.4260 52.7588 99 5 249
1902335S09065 1903 51 SI MM NOT_NAMED 1902-12-07 03:00:00 NR -13.5147 52.5232 spur-split 261 238 _____P________ -1 -13.5147 52.5232 99 5 249
1902335S09065 1903 51 SI MM NOT_NAMED 1902-12-07 06:00:00 NR -13.6000 52.3000 reunion spur-split 238 216 _____O________ -1 -13.6000 52.3000 99 9.90000 4 251
1902335S09065 1903 51 SI MM NOT_NAMED 1902-12-07 09:00:00 NR -13.6568 52.1039 spur-split 216 194 _____P________ -1 -13.6568 52.1039 99 4 254
1902335S09065 1903 51 SI MM NOT_NAMED 1902-12-07 12:00:00 NR -13.7062 51.9257 spur-split 194 183 _____P________ -1 -13.7062 51.9257 99 4 254
1902335S09065 1903 51 SI MM NOT_NAMED 1902-12-07 15:00:00 NR -13.7546 51.7577 spur-split 183 162 _____P________ -1 -13.7546 51.7577 99 3 253
1902335S09065 1903 51 SI MM NOT_NAMED 1902-12-07 18:00:00 NR -13.8081 51.5922 spur-split 162 140 _____P________ -1 -13.8081 51.5922 99 3 250
1902335S09065 1903 51 SI MM NOT_NAMED 1902-12-07 21:00:00 NR -13.8732 51.4214 spur-split 140 118 _____P________ -1 -13.8732 51.4214 99 4 247
1902335S09065 1903 51 SI MM NOT_NAMED 1902-12-08 00:00:00 NR -13.9561 51.2377 spur-split 118 97 _____P________ -1 -13.9561 51.2377 99 4 243
1902335S09065 1903 51 SI MM NOT_NAMED 1902-12-08 03:00:00 NR -14.0629 51.0332 spur-split 97 75 _____P________ -1 -14.0629 51.0332 99 5 240
1902335S09065 1903 51 SI MM NOT_NAMED 1902-12-08 06:00:00 NR -14.2000 50.8000 reunion spur-split 75 43 _____O________ -1 -14.2000 50.8000 99 9.90000 6 244
1902335S09065 1903 51 SI MM NOT_NAMED 1902-12-08 09:00:00 NR -14.3190 50.4849 spur-split 43 10 _____P________ -1 -14.3190 50.4849 99 7 248
1902335S09065 1903 51 SI MM NOT_NAMED 1902-12-08 12:00:00 NR -14.4593 50.1394 spur-split 0 0 _____P________ -1 -14.4593 50.1394 99 8 246
1902335S09065 1903 51 SI MM NOT_NAMED 1902-12-08 15:00:00 NR -14.6289 49.7736 spur-split 0 0 _____P________ -1 -14.6289 49.7736 99 8 242
1902335S09065 1903 51 SI MM NOT_NAMED 1902-12-08 18:00:00 NR -14.8358 49.3980 spur-split 0 0 _____P________ -1 -14.8358 49.3980 99 9 238
1902335S09065 1903 51 SI MM NOT_NAMED 1902-12-08 21:00:00 NR -15.0880 49.0227 spur-split 0 0 _____P________ -1 -15.0880 49.0227 99 9 232
1902335S09065 1903 51 SI MM NOT_NAMED 1902-12-09 00:00:00 NR -15.3939 48.6578 spur-split 0 0 _____P________ -1 -15.3939 48.6578 99 10 225
1902335S09065 1903 51 SI MM NOT_NAMED 1902-12-09 03:00:00 NR -15.7618 48.3135 spur-split 0 0 _____P________ -1 -15.7618 48.3135 99 10 218
1902335S09065 1903 51 SI MM NOT_NAMED 1902-12-09 06:00:00 NR -16.2000 48.0000 reunion spur-split 0 0 _____O________ -1 -16.2000 48.0000 99 9.90000 12 210
1902335S09065 1903 51 SI MM NOT_NAMED 1902-12-09 09:00:00 NR -16.7777 47.6982 spur-split 0 0 _____P________ -1 -16.7777 47.6982 99 14 204
1902335S09065 1903 51 SI MM NOT_NAMED 1902-12-09 12:00:00 NR -17.4361 47.4164 spur-split 0 0 _____P________ -1 -17.4361 47.4164 99 15 200
1902335S09065 1903 51 SI MM NOT_NAMED 1902-12-09 15:00:00 NR -18.1506 47.1607 spur-split 0 0 _____P________ -1 -18.1506 47.1607 99 15 197
1902335S09065 1903 51 SI MM NOT_NAMED 1902-12-09 18:00:00 NR -18.8966 46.9372 spur-split 0 0 _____P________ -1 -18.8966 46.9372 99 16 194
1902335S09065 1903 51 SI MM NOT_NAMED 1902-12-09 21:00:00 NR -19.6492 46.7524 spur-split 0 0 _____P________ -1 -19.6492 46.7524 99 15 192
1902335S09065 1903 51 SI MM NOT_NAMED 1902-12-10 00:00:00 NR -20.3838 46.6133 spur-split 0 0 _____P________ -1 -20.3838 46.6133 99 15 189
1902335S09065 1903 51 SI MM NOT_NAMED 1902-12-10 03:00:00 NR -21.0756 46.5268 spur-split 0 0 _____P________ -1 -21.0756 46.5268 99 13 185
1902335S09065 1903 51 SI MM NOT_NAMED 1902-12-10 06:00:00 NR -21.7000 46.5000 reunion spur-split 0 0 _____O________ -1 -21.7000 46.5000 99 9.90000 11 179
1902335S09065 1903 51 SI MM NOT_NAMED 1902-12-10 09:00:00 NR -22.1978 46.5552 spur-split 0 0 _____P________ -1 -22.1978 46.5552 99 10 170
1902335S09065 1903 51 SI MM NOT_NAMED 1902-12-10 12:00:00 NR -22.6407 46.6764 spur-split 0 0 _____P________ -1 -22.6407 46.6764 99 9 162
1902335S09065 1903 51 SI MM NOT_NAMED 1902-12-10 15:00:00 NR -23.0332 46.8496 spur-split 0 0 _____P________ -1 -23.0332 46.8496 99 8 154
1902335S09065 1903 51 SI MM NOT_NAMED 1902-12-10 18:00:00 NR -23.3798 47.0609 spur-split 0 0 _____P________ -1 -23.3798 47.0609 99 8 148
1902335S09065 1903 51 SI MM NOT_NAMED 1902-12-10 21:00:00 NR -23.6852 47.2961 spur-split 0 0 _____P________ -1 -23.6852 47.2961 99 7 143
1902335S09065 1903 51 SI MM NOT_NAMED 1902-12-11 00:00:00 NR -23.9540 47.5407 spur-split 0 0 _____P________ -1 -23.9540 47.5407 99 7 139
1902335S09065 1903 51 SI MM NOT_NAMED 1902-12-11 03:00:00 NR -24.1906 47.7802 spur-split 37 37 _____P________ -1 -24.1906 47.7802 99 6 137
1902335S09065 1903 51 SI MM NOT_NAMED 1902-12-11 06:00:00 NR -24.4000 48.0000 reunion spur-split 64 64 _____O________ -1 -24.4000 48.0000 99 9.90000 5 137
1902335S09065 1903 51 SI MM NOT_NAMED 1902-12-11 09:00:00 NR -24.5865 48.1885 spur-split 91 91 _____P________ -1 -24.5865 48.1885 99 5 138
1902335S09065 1903 51 SI MM NOT_NAMED 1902-12-11 12:00:00 NR -24.7533 48.3468 spur-split 106 106 _____P________ -1 -24.7533 48.3468 99 4 140
1902335S09065 1903 51 SI MM NOT_NAMED 1902-12-11 15:00:00 NR -24.9033 48.4790 spur-split 129 129 _____P________ -1 -24.9033 48.4790 99 4 143
1902335S09065 1903 51 SI MM NOT_NAMED 1902-12-11 18:00:00 NR -25.0394 48.5894 spur-split 142 142 _____P________ -1 -25.0394 48.5894 99 3 144
1902335S09065 1903 51 SI MM NOT_NAMED 1902-12-11 21:00:00 NR -25.1643 48.6823 spur-split 161 161 _____P________ -1 -25.1643 48.6823 99 3 147
1902335S09065 1903 51 SI MM NOT_NAMED 1902-12-12 00:00:00 NR -25.2808 48.7621 spur-split 174 174 _____P________ -1 -25.2808 48.7621 99 3 149
1902335S09065 1903 51 SI MM NOT_NAMED 1902-12-12 03:00:00 NR -25.3918 48.8332 spur-split 176 176 _____P________ -1 -25.3918 48.8332 99 3 150
1902335S09065 1903 51 SI MM NOT_NAMED 1902-12-12 06:00:00 NR -25.5000 48.9000 reunion spur-split 189 _____O________ -1 -25.5000 48.9000 99 9.90000 2 156

About IBTrACS Database

This database is a web-friendly format of International Best Track Archive for Climate Stewardship (IBTrACS), a global best track data archive curated by NOAA dating back to 1842.

Updated: 2021-10-25